createdAt,value
2023-03-17T00:01:51.314Z,2.97
2023-03-17T00:04:19.442Z,2.70
2023-03-17T00:06:47.590Z,2.85
2023-03-17T00:09:17.146Z,2.65
2023-03-17T00:11:45.444Z,2.80
2023-03-17T00:14:12.483Z,3.10
2023-03-17T00:16:42.944Z,2.90
2023-03-17T00:19:20.087Z,2.67
2023-03-17T00:21:47.136Z,3.00
2023-03-17T00:24:15.162Z,2.78
2023-03-17T00:26:42.612Z,2.83
2023-03-17T00:29:09.927Z,3.00
2023-03-17T00:31:38.174Z,2.50
2023-03-17T00:34:05.853Z,2.90
2023-03-17T00:36:33.651Z,2.83
2023-03-17T00:39:01.657Z,2.90
2023-03-17T00:41:29.502Z,2.97
2023-03-17T00:43:57.307Z,3.30
2023-03-17T00:46:27.468Z,2.80
2023-03-17T00:48:55.174Z,2.90
2023-03-17T00:51:22.027Z,2.93
2023-03-17T00:53:48.874Z,2.92
2023-03-17T00:56:20.855Z,3.08
2023-03-17T00:58:48.265Z,2.90
2023-03-17T01:01:16.314Z,2.97
2023-03-17T01:03:43.176Z,2.80
2023-03-17T01:06:13.733Z,3.20
2023-03-17T01:08:41.468Z,2.85
2023-03-17T01:11:16.526Z,2.80
2023-03-17T01:13:43.443Z,3.22
2023-03-17T01:16:11.143Z,2.90
2023-03-17T01:18:38.402Z,3.00
2023-03-17T01:21:05.558Z,2.90
2023-03-17T01:23:32.918Z,2.72
2023-03-17T01:26:00.162Z,2.90
2023-03-17T01:28:27.185Z,2.90
2023-03-17T01:30:53.858Z,2.70
2023-03-17T01:33:20.781Z,3.15
2023-03-17T01:35:47.821Z,2.97
2023-03-17T01:38:15.206Z,3.10
2023-03-17T01:40:51.005Z,2.87
2023-03-17T01:43:22.554Z,2.75
2023-03-17T01:46:32.036Z,2.58
2023-03-17T01:49:30.285Z,2.92
2023-03-17T01:52:06.515Z,2.80
2023-03-17T01:54:39.893Z,2.90
2023-03-17T01:57:21.355Z,3.03
2023-03-17T01:59:52.645Z,2.70
2023-03-17T02:02:24.623Z,2.67
2023-03-17T02:04:52.244Z,2.85
2023-03-17T02:07:20.636Z,3.07
2023-03-17T02:09:47.916Z,3.25
2023-03-17T02:12:15.307Z,2.70
2023-03-17T02:14:42.044Z,2.90
2023-03-17T02:17:08.986Z,2.88
2023-03-17T02:19:35.784Z,2.70
2023-03-17T02:22:02.726Z,2.80
2023-03-17T02:24:43.243Z,3.00
2023-03-17T02:27:13.481Z,3.05
2023-03-17T02:29:40.771Z,2.80
2023-03-17T02:32:09.949Z,3.23
2023-03-17T02:34:37.299Z,2.83
2023-03-17T02:37:04.661Z,2.95
2023-03-17T02:39:32.135Z,3.10
2023-03-17T02:41:59.380Z,2.97
2023-03-17T02:44:27.138Z,3.40
2023-03-17T02:46:54.232Z,2.65
2023-03-17T02:49:21.710Z,3.00
2023-03-17T02:51:48.480Z,3.13
2023-03-17T02:54:15.366Z,3.10
2023-03-17T02:56:42.176Z,3.10
2023-03-17T02:59:09.410Z,3.10
2023-03-17T03:01:36.409Z,2.70
2023-03-17T03:04:04.033Z,2.97
2023-03-17T03:06:32.076Z,3.00
2023-03-17T03:08:59.095Z,2.60
2023-03-17T03:11:26.553Z,2.80
2023-03-17T03:13:53.510Z,2.70
2023-03-17T03:16:21.121Z,2.60
2023-03-17T03:18:48.092Z,2.95
2023-03-17T03:21:15.375Z,2.87
2023-03-17T03:23:43.351Z,3.00
2023-03-17T03:26:10.147Z,3.15
2023-03-17T03:28:37.339Z,3.00
2023-03-17T03:31:05.521Z,2.90
2023-03-17T03:33:33.601Z,2.50
2023-03-17T03:36:00.565Z,2.70
2023-03-17T03:38:28.435Z,2.85
2023-03-17T03:40:55.180Z,2.70
2023-03-17T03:43:23.938Z,2.45
2023-03-17T03:45:51.713Z,2.57
2023-03-17T03:48:18.997Z,2.83
2023-03-17T03:50:45.912Z,2.65
2023-03-17T03:53:12.934Z,2.80
2023-03-17T03:55:39.974Z,3.00
2023-03-17T03:58:06.842Z,2.50
2023-03-17T04:00:33.585Z,2.65
2023-03-17T04:03:01.397Z,2.67
2023-03-17T04:05:28.409Z,2.53
2023-03-17T04:07:55.163Z,2.70
2023-03-17T04:10:23.178Z,2.70
2023-03-17T04:12:50.327Z,2.85
2023-03-17T04:15:18.563Z,2.90
2023-03-17T04:17:45.472Z,2.60
2023-03-17T04:20:14.204Z,2.80
2023-03-17T04:22:44.879Z,2.83
2023-03-17T04:25:14.262Z,2.58
2023-03-17T04:27:42.432Z,2.97
2023-03-17T04:30:13.903Z,2.70
2023-03-17T04:32:42.879Z,2.65
2023-03-17T04:35:15.088Z,2.73
2023-03-17T04:37:42.183Z,2.80
2023-03-17T04:40:10.719Z,3.17
2023-03-17T04:42:37.950Z,3.13
2023-03-17T04:45:11.304Z,2.90
2023-03-17T04:47:38.313Z,2.90
2023-03-17T04:50:06.001Z,2.80
2023-03-17T04:52:33.029Z,2.88
2023-03-17T04:54:59.784Z,2.70
2023-03-17T04:57:26.556Z,2.80
2023-03-17T04:59:53.251Z,2.70
2023-03-17T05:02:20.281Z,2.75
2023-03-17T05:04:47.808Z,2.58
2023-03-17T05:07:15.317Z,3.03
2023-03-17T05:09:42.526Z,2.60
2023-03-17T05:12:10.021Z,2.73
2023-03-17T05:14:37.270Z,2.50
2023-03-17T05:17:04.718Z,2.40
2023-03-17T05:19:32.029Z,2.60
2023-03-17T05:21:58.825Z,2.70
2023-03-17T05:24:25.839Z,2.60
2023-03-17T05:26:52.980Z,2.75
2023-03-17T05:29:20.270Z,2.75
2023-03-17T05:31:47.381Z,2.80
2023-03-17T05:34:14.135Z,2.85
2023-03-17T05:36:40.920Z,2.70
2023-03-17T05:39:07.602Z,2.92
2023-03-17T05:41:34.912Z,2.90
2023-03-17T05:44:01.741Z,3.00
2023-03-17T05:46:28.663Z,2.50
2023-03-17T05:48:55.832Z,2.50
2023-03-17T05:51:22.906Z,2.80
2023-03-17T05:53:49.682Z,2.60
2023-03-17T05:56:16.616Z,2.38
2023-03-17T05:58:43.523Z,2.42
2023-03-17T06:01:11.119Z,2.43
2023-03-17T06:03:38.979Z,3.08
2023-03-17T06:06:06.668Z,2.33
2023-03-17T06:08:33.679Z,2.50
2023-03-17T06:11:00.761Z,2.60
2023-03-17T06:13:27.689Z,2.73
2023-03-17T06:15:54.635Z,2.55
2023-03-17T06:18:22.212Z,2.60
2023-03-17T06:20:48.961Z,2.55
2023-03-17T06:23:17.526Z,2.58
2023-03-17T06:25:45.915Z,2.53
2023-03-17T06:28:13.638Z,2.97
2023-03-17T06:30:41.813Z,3.08
2023-03-17T06:33:11.605Z,2.90
2023-03-17T06:35:39.848Z,3.22
2023-03-17T06:38:07.832Z,3.00
2023-03-17T06:40:35.143Z,3.08
2023-03-17T06:43:02.245Z,2.83
2023-03-17T06:45:30.608Z,2.90
2023-03-17T06:47:57.928Z,2.72
2023-03-17T06:50:25.964Z,2.67
2023-03-17T06:52:52.710Z,2.53
2023-03-17T06:55:19.577Z,2.83
2023-03-17T06:57:48.326Z,2.95
2023-03-17T07:00:16.348Z,2.70
2023-03-17T07:02:43.615Z,2.73
2023-03-17T07:05:10.339Z,2.60
2023-03-17T07:07:39.048Z,2.78
2023-03-17T07:10:07.041Z,2.80
2023-03-17T07:12:34.263Z,2.20
2023-03-17T07:15:01.625Z,2.60
2023-03-17T07:17:28.909Z,2.65
2023-03-17T07:19:56.380Z,4.00
2023-03-17T07:22:23.530Z,3.30
2023-03-17T07:24:52.087Z,2.75
2023-03-17T07:27:21.633Z,3.40
2023-03-17T07:29:49.688Z,2.72
2023-03-17T07:32:16.670Z,2.95
2023-03-17T07:34:43.658Z,2.67
2023-03-17T07:37:12.578Z,2.58
2023-03-17T07:39:39.895Z,2.90
2023-03-17T07:42:07.167Z,2.55
2023-03-17T07:44:35.302Z,2.60
2023-03-17T07:47:01.988Z,2.53
2023-03-17T07:49:40.889Z,2.72
2023-03-17T07:52:10.629Z,2.60
2023-03-17T07:54:37.705Z,2.80
2023-03-17T07:57:05.502Z,2.85
2023-03-17T07:59:32.745Z,2.70
2023-03-17T08:02:01.225Z,2.80
2023-03-17T08:04:28.985Z,3.00
2023-03-17T08:06:55.945Z,2.80
2023-03-17T08:09:23.183Z,2.75
2023-03-17T08:11:50.624Z,2.67
2023-03-17T08:14:17.398Z,2.88
2023-03-17T08:16:44.392Z,2.83
2023-03-17T08:19:11.211Z,2.88
2023-03-17T08:21:38.413Z,3.17
2023-03-17T08:24:05.855Z,3.20
2023-03-17T08:26:32.813Z,3.30
2023-03-17T08:28:59.564Z,3.00
2023-03-17T08:31:27.260Z,3.20
2023-03-17T08:33:57.014Z,3.08
2023-03-17T08:36:24.156Z,3.10
2023-03-17T08:38:51.005Z,3.00
2023-03-17T08:41:21.110Z,2.80
2023-03-17T08:43:48.496Z,2.95
2023-03-17T08:46:16.885Z,2.80
2023-03-17T08:48:45.279Z,2.90
2023-03-17T08:51:12.975Z,2.88
2023-03-17T08:53:40.385Z,2.40
2023-03-17T08:56:08.386Z,2.70
2023-03-17T08:58:37.486Z,2.72
2023-03-17T09:01:04.955Z,2.65
2023-03-17T09:03:33.130Z,2.70
2023-03-17T09:06:00.433Z,2.80
2023-03-17T09:08:27.738Z,3.03
2023-03-17T09:10:54.664Z,2.90
2023-03-17T09:13:22.856Z,3.10
2023-03-17T09:15:52.007Z,3.13
2023-03-17T09:18:21.942Z,2.80
2023-03-17T09:20:48.942Z,3.10
2023-03-17T09:23:16.482Z,3.13
2023-03-17T09:25:43.692Z,3.22
2023-03-17T09:28:12.273Z,3.30
2023-03-17T09:30:42.723Z,3.00
2023-03-17T09:33:11.944Z,3.10
2023-03-17T09:35:40.085Z,3.17
2023-03-17T09:38:08.513Z,2.97
2023-03-17T09:41:20.842Z,3.13
2023-03-17T09:44:02.644Z,3.10
2023-03-17T09:47:15.396Z,3.10
2023-03-17T09:49:51.751Z,2.95
2023-03-17T09:52:34.460Z,2.95
2023-03-17T09:55:05.932Z,2.90
2023-03-17T09:57:40.348Z,3.00
2023-03-17T10:00:18.067Z,3.22
2023-03-17T10:02:46.119Z,3.50
2023-03-17T10:05:21.919Z,3.10
2023-03-17T10:08:15.783Z,3.40
2023-03-17T10:11:03.135Z,3.37
2023-03-17T10:13:35.613Z,3.45
2023-03-17T10:16:12.252Z,3.85
2023-03-17T10:18:49.903Z,3.72
2023-03-17T10:21:24.238Z,4.10
2023-03-17T10:23:52.585Z,4.23
2023-03-17T10:26:42.855Z,4.10
2023-03-17T10:29:22.789Z,4.05
2023-03-17T10:31:51.604Z,4.32
2023-03-17T10:34:29.171Z,4.43
2023-03-17T10:37:01.495Z,4.40
2023-03-17T10:39:32.534Z,4.38
2023-03-17T10:42:09.348Z,4.15
2023-03-17T10:44:58.836Z,4.50
2023-03-17T10:47:31.764Z,4.20
2023-03-17T10:50:21.609Z,4.23
2023-03-17T10:52:54.097Z,4.10
2023-03-17T10:55:23.125Z,4.28
2023-03-17T10:58:02.276Z,4.40
2023-03-17T11:00:35.057Z,4.60
2023-03-17T11:03:31.511Z,4.70
2023-03-17T11:06:03.925Z,4.43
2023-03-17T11:08:36.694Z,4.68
2023-03-17T11:11:08.361Z,4.43
2023-03-17T11:13:35.212Z,4.78
2023-03-17T11:16:23.372Z,4.77
2023-03-17T11:18:57.592Z,4.60
2023-03-17T11:21:47.946Z,4.78
2023-03-17T11:24:21.040Z,4.82
2023-03-17T11:26:47.807Z,4.70
2023-03-17T11:30:06.515Z,4.67
2023-03-17T11:32:41.727Z,4.85
2023-03-17T11:35:39.904Z,5.10
2023-03-17T11:38:12.875Z,4.72
2023-03-17T11:40:57.668Z,4.80
2023-03-17T11:43:37.361Z,4.77
2023-03-17T11:46:12.899Z,4.55
2023-03-17T11:49:03.496Z,5.05
2023-03-17T11:51:59.333Z,4.80
2023-03-17T11:54:35.311Z,4.88
2023-03-17T11:57:09.505Z,4.70
2023-03-17T11:59:39.795Z,4.95
2023-03-17T12:02:21.466Z,4.93
2023-03-17T12:04:58.303Z,5.03
2023-03-17T12:07:47.004Z,4.90
2023-03-17T12:10:23.589Z,5.03
2023-03-17T12:12:56.623Z,5.07
2023-03-17T12:15:43.554Z,5.53
2023-03-17T12:18:32.705Z,5.18
2023-03-17T12:21:07.627Z,5.13
2023-03-17T12:23:45.267Z,5.10
2023-03-17T12:26:47.868Z,4.82
2023-03-17T12:29:25.097Z,4.95
2023-03-17T12:32:17.714Z,5.47
2023-03-17T12:35:11.347Z,5.30
2023-03-17T12:37:40.428Z,5.00
2023-03-17T12:40:17.333Z,4.90
2023-03-17T12:42:56.470Z,5.50
2023-03-17T12:45:44.737Z,5.45
2023-03-17T12:48:38.757Z,5.78
2023-03-17T12:51:24.154Z,5.13
2023-03-17T12:53:51.888Z,5.35
2023-03-17T12:56:31.828Z,5.35
2023-03-17T12:59:08.735Z,5.35
2023-03-17T13:01:45.764Z,5.57
2023-03-17T13:04:26.486Z,5.40
2023-03-17T13:07:12.892Z,5.80
2023-03-17T13:09:54.523Z,5.78
2023-03-17T13:12:40.075Z,6.00
2023-03-17T13:15:25.483Z,5.50
2023-03-17T13:18:10.597Z,5.80
2023-03-17T13:20:40.447Z,5.63
2023-03-17T13:23:10.236Z,5.85
2023-03-17T13:25:41.571Z,5.60
2023-03-17T13:28:14.885Z,5.82
2023-03-17T13:30:53.959Z,6.20
2023-03-17T13:33:27.193Z,6.00
2023-03-17T13:36:09.213Z,6.25
2023-03-17T13:39:18.310Z,6.63
2023-03-17T13:42:20.899Z,6.28
2023-03-17T13:45:04.253Z,6.43
2023-03-17T13:47:42.296Z,6.15
2023-03-17T13:50:16.593Z,5.80
2023-03-17T13:52:52.744Z,6.18
2023-03-17T13:55:20.417Z,5.95
2023-03-17T13:57:57.320Z,6.07
2023-03-17T14:00:27.822Z,5.68
2023-03-17T14:03:05.633Z,6.25
2023-03-17T14:05:38.016Z,5.95
2023-03-17T14:08:06.475Z,6.53
2023-03-17T14:10:34.318Z,6.10
2023-03-17T14:13:22.641Z,6.05
2023-03-17T14:16:20.110Z,6.20
2023-03-17T14:18:51.923Z,5.95
2023-03-17T14:21:45.469Z,5.80
2023-03-17T14:24:31.421Z,5.70
2023-03-17T14:27:03.704Z,5.70
2023-03-17T14:29:32.334Z,5.75
2023-03-17T14:32:15.949Z,5.90
2023-03-17T14:34:48.939Z,5.55
2023-03-17T14:37:16.557Z,5.40
2023-03-17T14:39:49.086Z,5.40
2023-03-17T14:42:19.868Z,5.70
2023-03-17T14:44:46.813Z,5.93
2023-03-17T14:47:25.848Z,5.55
2023-03-17T14:49:55.687Z,5.17
2023-03-17T14:52:28.664Z,5.20
2023-03-17T14:54:59.134Z,5.80
2023-03-17T14:57:33.475Z,5.80
2023-03-17T15:00:27.505Z,5.88
2023-03-17T15:02:57.446Z,5.77
2023-03-17T15:05:36.689Z,6.20
2023-03-17T15:08:36.657Z,6.10
2023-03-17T15:11:05.611Z,6.15
2023-03-17T15:13:37.323Z,6.20
2023-03-17T15:16:18.653Z,5.90
2023-03-17T15:18:46.217Z,6.20
2023-03-17T15:21:28.852Z,5.60
2023-03-17T15:23:56.021Z,5.18
2023-03-17T15:26:44.601Z,5.90
2023-03-17T15:29:11.340Z,6.13
2023-03-17T15:31:39.204Z,6.25
2023-03-17T15:34:06.011Z,6.43
2023-03-17T15:36:33.411Z,6.68
2023-03-17T15:39:02.179Z,7.18
2023-03-17T15:41:29.018Z,6.47
2023-03-17T15:43:56.759Z,6.88
2023-03-17T15:46:33.593Z,7.07
2023-03-17T15:49:03.417Z,6.53
2023-03-17T15:51:30.422Z,6.78
2023-03-17T15:53:58.347Z,6.43
2023-03-17T15:56:26.137Z,6.75
2023-03-17T15:58:52.881Z,6.57
2023-03-17T16:01:20.849Z,6.47
2023-03-17T16:03:49.481Z,6.32
2023-03-17T16:06:21.373Z,6.60
2023-03-17T16:08:51.852Z,6.63
2023-03-17T16:11:28.212Z,7.03
2023-03-17T16:13:57.098Z,6.80
2023-03-17T16:16:31.744Z,6.43
2023-03-17T16:18:59.374Z,6.30
2023-03-17T16:21:26.488Z,6.35
2023-03-17T16:23:54.539Z,6.63
2023-03-17T16:26:21.318Z,6.18
2023-03-17T16:28:49.195Z,6.07
2023-03-17T16:31:30.236Z,6.67
2023-03-17T16:33:58.300Z,6.57
2023-03-17T16:36:25.853Z,6.50
2023-03-17T16:38:52.936Z,6.50
2023-03-17T16:41:27.046Z,6.75
2023-03-17T16:43:58.826Z,6.47
2023-03-17T16:46:27.739Z,6.30
2023-03-17T16:48:56.084Z,6.63
2023-03-17T16:51:24.841Z,6.20
2023-03-17T16:53:51.746Z,6.30
2023-03-17T16:56:21.730Z,6.60
2023-03-17T16:58:49.162Z,6.43
2023-03-17T17:01:20.606Z,6.75
2023-03-17T17:03:48.486Z,6.53
2023-03-17T17:06:15.912Z,6.38
2023-03-17T17:08:47.448Z,6.57
2023-03-17T17:11:15.879Z,6.57
2023-03-17T17:13:44.484Z,6.60
2023-03-17T17:16:28.057Z,6.22
2023-03-17T17:18:56.388Z,6.38
2023-03-17T17:21:23.453Z,6.17
2023-03-17T17:23:52.821Z,6.53
2023-03-17T17:26:20.152Z,6.13
2023-03-17T17:28:46.899Z,6.15
2023-03-17T17:31:14.098Z,6.93
2023-03-17T17:33:40.969Z,6.50
2023-03-17T17:36:14.520Z,6.90
2023-03-17T17:38:41.598Z,7.38
2023-03-17T17:41:10.850Z,8.15
2023-03-17T17:43:38.024Z,8.10
2023-03-17T17:46:11.008Z,8.20
2023-03-17T17:48:38.155Z,8.65
2023-03-17T17:51:05.100Z,8.68
2023-03-17T17:53:31.922Z,8.38
2023-03-17T17:55:58.908Z,8.20
2023-03-17T17:58:26.551Z,8.93
2023-03-17T18:00:57.538Z,8.13
2023-03-17T18:03:27.404Z,8.55
2023-03-17T18:05:56.190Z,9.00
2023-03-17T18:08:23.700Z,8.30
2023-03-17T18:10:52.105Z,8.23
2023-03-17T18:13:19.276Z,9.75
2023-03-17T18:15:46.108Z,10.48
2023-03-17T18:18:13.003Z,10.20
2023-03-17T18:20:40.310Z,10.02
2023-03-17T18:23:08.043Z,9.80
2023-03-17T18:25:34.921Z,9.57
2023-03-17T18:28:01.814Z,9.43
2023-03-17T18:30:31.730Z,9.10
2023-03-17T18:33:04.780Z,9.10
2023-03-17T18:35:32.093Z,9.10
2023-03-17T18:37:59.139Z,9.10
2023-03-17T18:40:26.502Z,8.68
2023-03-17T18:42:55.373Z,8.52
2023-03-17T18:45:22.315Z,7.90
2023-03-17T18:47:49.196Z,7.50
2023-03-17T18:50:17.539Z,7.07
2023-03-17T18:52:45.693Z,7.70
2023-03-17T18:55:14.613Z,7.03
2023-03-17T18:57:44.633Z,7.32
2023-03-17T19:00:14.116Z,6.40
2023-03-17T19:02:40.996Z,6.53
2023-03-17T19:05:09.150Z,7.13
2023-03-17T19:07:37.965Z,6.68
2023-03-17T19:10:07.558Z,7.05
2023-03-17T19:12:34.448Z,7.87
2023-03-17T19:15:01.763Z,7.80
2023-03-17T19:17:28.780Z,8.88
2023-03-17T19:19:56.254Z,7.60
2023-03-17T19:22:24.191Z,8.27
2023-03-17T19:24:50.966Z,9.00
2023-03-17T19:27:18.030Z,8.40
2023-03-17T19:29:44.985Z,9.10
2023-03-17T19:32:11.783Z,8.32
2023-03-17T19:34:38.678Z,8.30
2023-03-17T19:37:05.808Z,8.20
2023-03-17T19:39:33.854Z,8.48
2023-03-17T19:42:00.965Z,8.48
2023-03-17T19:44:27.816Z,7.93
2023-03-17T19:46:55.070Z,8.20
2023-03-17T19:49:22.333Z,7.60
2023-03-17T19:51:49.873Z,7.70
2023-03-17T19:54:18.691Z,7.50
2023-03-17T19:56:45.712Z,7.57
2023-03-17T19:59:12.431Z,7.30
2023-03-17T20:01:39.767Z,7.60
2023-03-17T20:04:10.730Z,7.57
2023-03-17T20:06:38.086Z,7.80
2023-03-17T20:09:05.781Z,7.00
2023-03-17T20:11:35.234Z,7.15
2023-03-17T20:14:03.294Z,6.93
2023-03-17T20:16:33.560Z,7.13
2023-03-17T20:19:06.907Z,6.68
2023-03-17T20:21:33.752Z,7.13
2023-03-17T20:24:00.888Z,6.75
2023-03-17T20:26:28.709Z,7.10
2023-03-17T20:28:56.042Z,7.32
2023-03-17T20:31:23.494Z,6.78
2023-03-17T20:33:50.593Z,7.50
2023-03-17T20:36:17.316Z,6.40
2023-03-17T20:38:44.048Z,6.40
2023-03-17T20:41:13.832Z,6.30
2023-03-17T20:43:41.605Z,6.40
2023-03-17T20:46:15.246Z,6.72
2023-03-17T20:48:43.265Z,7.03
2023-03-17T20:51:16.334Z,6.47
2023-03-17T20:53:47.538Z,6.45
2023-03-17T20:56:16.055Z,6.53
2023-03-17T20:58:45.395Z,7.40
2023-03-17T21:01:12.871Z,7.10
2023-03-17T21:03:41.384Z,7.43
2023-03-17T21:06:09.664Z,7.35
2023-03-17T21:08:37.718Z,7.50
2023-03-17T21:11:09.207Z,7.40
2023-03-17T21:13:36.474Z,7.20
2023-03-17T21:16:03.486Z,7.10
2023-03-17T21:18:30.495Z,7.60
2023-03-17T21:20:57.329Z,7.57
2023-03-17T21:23:24.294Z,7.70
2023-03-17T21:26:02.159Z,7.50
2023-03-17T21:28:28.916Z,7.33
2023-03-17T21:30:55.688Z,6.93
2023-03-17T21:33:22.507Z,7.32
2023-03-17T21:35:49.417Z,7.32
2023-03-17T21:38:16.676Z,6.82
2023-03-17T21:40:43.431Z,7.60
2023-03-17T21:43:11.365Z,7.70
2023-03-17T21:45:39.154Z,7.55
2023-03-17T21:48:06.153Z,8.30
2023-03-17T21:50:33.591Z,7.97
2023-03-17T21:53:00.686Z,7.50
2023-03-17T21:55:27.527Z,8.07
2023-03-17T21:57:54.266Z,8.00
2023-03-17T22:00:23.624Z,8.38
2023-03-17T22:02:51.524Z,8.70
2023-03-17T22:05:18.694Z,8.77
2023-03-17T22:07:45.702Z,8.95
2023-03-17T22:10:12.498Z,8.38
2023-03-17T22:12:39.512Z,9.50
2023-03-17T22:15:08.915Z,9.02
2023-03-17T22:17:36.397Z,9.00
2023-03-17T22:20:06.747Z,9.18
2023-03-17T22:22:34.931Z,9.02
2023-03-17T22:25:05.484Z,9.43
2023-03-17T22:27:32.957Z,9.10
2023-03-17T22:29:59.706Z,8.93
2023-03-17T22:32:26.572Z,9.23
2023-03-17T22:34:53.409Z,9.23
2023-03-17T22:37:20.219Z,9.52
2023-03-17T22:39:48.350Z,9.20
2023-03-17T22:42:15.106Z,9.60
2023-03-17T22:44:42.038Z,9.98
2023-03-17T22:47:08.991Z,10.23
2023-03-17T22:49:36.218Z,10.23
2023-03-17T22:52:03.277Z,10.68
2023-03-17T22:54:30.060Z,9.63
2023-03-17T22:56:57.478Z,10.57
2023-03-17T22:59:24.174Z,10.63
2023-03-17T23:01:50.949Z,10.48
2023-03-17T23:04:18.806Z,11.30
2023-03-17T23:06:47.375Z,10.80
2023-03-17T23:09:14.606Z,10.80
2023-03-17T23:11:42.365Z,11.80
2023-03-17T23:14:09.250Z,11.52
2023-03-17T23:16:37.640Z,11.35
2023-03-17T23:19:05.391Z,11.07
2023-03-17T23:21:40.857Z,11.43
2023-03-17T23:24:08.709Z,11.93
2023-03-17T23:26:37.160Z,12.23
2023-03-17T23:29:07.125Z,11.40
2023-03-17T23:31:34.510Z,11.63
2023-03-17T23:34:01.928Z,11.15
2023-03-17T23:36:28.887Z,11.30
2023-03-17T23:38:55.928Z,11.15
2023-03-17T23:41:22.726Z,11.68
2023-03-17T23:43:49.962Z,11.60
2023-03-17T23:46:17.774Z,11.05
2023-03-17T23:48:45.552Z,11.65
2023-03-17T23:51:12.981Z,11.80
2023-03-17T23:53:40.099Z,11.93
2023-03-17T23:56:07.907Z,12.03
2023-03-17T23:58:34.726Z,12.68
